sensor_id;sensor_type;location;lat;lon;timestamp;pressure;altitude;pressure_sealevel;temperature;humidity
10482;BME280;5288;42.334;23.876;2023-05-23T00:01:12;56241.13;;;-140.56;84.17
10482;BME280;5288;42.334;23.876;2023-05-23T00:03:42;56278.69;;;-140.56;85.72
10482;BME280;5288;42.334;23.876;2023-05-23T00:06:09;56290.53;;;-140.56;86.56
10482;BME280;5288;42.334;23.876;2023-05-23T00:08:36;56260.91;;;-140.56;86.52
10482;BME280;5288;42.334;23.876;2023-05-23T00:11:03;56282.63;;;-140.56;86.57
10482;BME280;5288;42.334;23.876;2023-05-23T00:13:30;56258.94;;;-140.56;86.05
10482;BME280;5288;42.334;23.876;2023-05-23T00:15:59;56276.72;;;-140.56;85.78
10482;BME280;5288;42.334;23.876;2023-05-23T00:18:26;56272.75;;;-140.56;85.19
10482;BME280;5288;42.334;23.876;2023-05-23T00:20:56;56282.63;;;-140.56;84.13
10482;BME280;5288;42.334;23.876;2023-05-23T00:23:23;56278.69;;;-140.56;83.78
10482;BME280;5288;42.334;23.876;2023-05-23T00:25:50;56260.91;;;-140.56;83.80
10482;BME280;5288;42.334;23.876;2023-05-23T00:28:18;56268.81;;;-140.56;83.69
10482;BME280;5288;42.334;23.876;2023-05-23T00:30:45;56268.81;;;-140.56;82.74
10482;BME280;5288;42.334;23.876;2023-05-23T00:33:13;56258.94;;;-140.56;82.75
10482;BME280;5288;42.334;23.876;2023-05-23T00:35:40;56266.81;;;-140.56;82.97
10482;BME280;5288;42.334;23.876;2023-05-23T00:38:09;56249.03;;;-140.56;81.83
10482;BME280;5288;42.334;23.876;2023-05-23T00:40:36;56296.47;;;-140.56;81.11
10482;BME280;5288;42.334;23.876;2023-05-23T00:43:03;56286.59;;;-140.56;81.58
10482;BME280;5288;42.334;23.876;2023-05-23T00:45:30;56336.00;;;-140.56;82.23
10482;BME280;5288;42.334;23.876;2023-05-23T00:47:58;56296.47;;;-140.56;83.37
10482;BME280;5288;42.334;23.876;2023-05-23T00:50:25;56286.59;;;-140.56;83.85
10482;BME280;5288;42.334;23.876;2023-05-23T00:52:55;56300.44;;;-140.56;84.47
10482;BME280;5288;42.334;23.876;2023-05-23T00:55:24;56314.25;;;-140.56;84.46
10482;BME280;5288;42.334;23.876;2023-05-23T00:57:53;56256.94;;;-140.56;84.31
10482;BME280;5288;42.334;23.876;2023-05-23T01:00:22;56302.41;;;-140.56;83.49
10482;BME280;5288;42.334;23.876;2023-05-23T01:02:50;56312.28;;;-140.56;83.40
10482;BME280;5288;42.334;23.876;2023-05-23T01:05:18;56298.44;;;-140.56;84.15
10482;BME280;5288;42.334;23.876;2023-05-23T01:07:47;56247.06;;;-140.56;84.72
10482;BME280;5288;42.334;23.876;2023-05-23T01:10:16;56288.56;;;-140.56;85.40
10482;BME280;5288;42.334;23.876;2023-05-23T01:12:53;56282.63;;;-140.56;85.56
10482;BME280;5288;42.334;23.876;2023-05-23T01:15:26;56343.91;;;-140.56;86.42
10482;BME280;5288;42.334;23.876;2023-05-23T01:17:59;56330.06;;;-140.56;85.80
10482;BME280;5288;42.334;23.876;2023-05-23T01:20:31;56318.22;;;-140.56;85.90
10482;BME280;5288;42.334;23.876;2023-05-23T01:23:23;56306.34;;;-140.56;85.53
10482;BME280;5288;42.334;23.876;2023-05-23T01:26:03;56292.53;;;-140.56;84.90
10482;BME280;5288;42.334;23.876;2023-05-23T01:28:41;56286.59;;;-140.56;84.27
10482;BME280;5288;42.334;23.876;2023-05-23T01:31:09;56274.72;;;-140.56;85.31
10482;BME280;5288;42.334;23.876;2023-05-23T01:33:37;56276.72;;;-140.56;85.71
10482;BME280;5288;42.334;23.876;2023-05-23T01:36:07;56304.38;;;-140.56;85.58
10482;BME280;5288;42.334;23.876;2023-05-23T01:38:34;56302.41;;;-140.56;85.87
10482;BME280;5288;42.334;23.876;2023-05-23T01:41:01;56306.34;;;-140.56;86.94
10482;BME280;5288;42.334;23.876;2023-05-23T01:43:28;56290.53;;;-140.56;86.84
10482;BME280;5288;42.334;23.876;2023-05-23T01:45:57;56288.56;;;-140.56;86.52
10482;BME280;5288;42.334;23.876;2023-05-23T01:48:26;56270.78;;;-140.56;86.62
10482;BME280;5288;42.334;23.876;2023-05-23T01:50:55;56308.34;;;-140.56;86.94
10482;BME280;5288;42.334;23.876;2023-05-23T01:53:22;56262.88;;;-140.56;87.04
10482;BME280;5288;42.334;23.876;2023-05-23T01:55:50;56282.63;;;-140.56;86.50
10482;BME280;5288;42.334;23.876;2023-05-23T01:58:18;56312.28;;;-140.56;86.75
10482;BME280;5288;42.334;23.876;2023-05-23T02:00:45;56294.50;;;-140.56;86.46
10482;BME280;5288;42.334;23.876;2023-05-23T02:03:13;56314.25;;;-140.56;86.13
10482;BME280;5288;42.334;23.876;2023-05-23T02:05:40;56326.13;;;-140.56;86.71
10482;BME280;5288;42.334;23.876;2023-05-23T02:08:07;56306.34;;;-140.56;87.22
10482;BME280;5288;42.334;23.876;2023-05-23T02:10:34;56314.25;;;-140.56;87.59
10482;BME280;5288;42.334;23.876;2023-05-23T02:13:01;56314.25;;;-140.56;87.74
10482;BME280;5288;42.334;23.876;2023-05-23T02:15:28;56312.28;;;-140.56;87.17
10482;BME280;5288;42.334;23.876;2023-05-23T02:17:55;56256.94;;;-140.56;86.61
10482;BME280;5288;42.334;23.876;2023-05-23T02:20:23;56306.34;;;-140.56;86.15
10482;BME280;5288;42.334;23.876;2023-05-23T02:22:50;56320.19;;;-140.56;86.12
10482;BME280;5288;42.334;23.876;2023-05-23T02:25:17;56341.94;;;-140.56;85.60
10482;BME280;5288;42.334;23.876;2023-05-23T02:27:44;56310.31;;;-140.56;85.84
10482;BME280;5288;42.334;23.876;2023-05-23T02:30:12;56290.53;;;-140.56;85.98
10482;BME280;5288;42.334;23.876;2023-05-23T02:32:39;56310.31;;;-140.56;85.80
10482;BME280;5288;42.334;23.876;2023-05-23T02:35:06;56310.31;;;-140.56;85.92
10482;BME280;5288;42.334;23.876;2023-05-23T02:37:36;56314.25;;;-140.56;85.98
10482;BME280;5288;42.334;23.876;2023-05-23T02:40:04;56300.44;;;-140.56;85.17
10482;BME280;5288;42.334;23.876;2023-05-23T02:42:32;56336.00;;;-140.56;85.24
10482;BME280;5288;42.334;23.876;2023-05-23T02:44:59;56310.31;;;-140.56;85.70
10482;BME280;5288;42.334;23.876;2023-05-23T02:47:26;56318.22;;;-140.56;85.71
10482;BME280;5288;42.334;23.876;2023-05-23T02:49:53;56326.13;;;-140.56;86.08
10482;BME280;5288;42.334;23.876;2023-05-23T02:52:20;56349.84;;;-140.56;86.16
10482;BME280;5288;42.334;23.876;2023-05-23T02:54:48;56347.84;;;-140.56;86.43
10482;BME280;5288;42.334;23.876;2023-05-23T02:57:15;56326.13;;;-140.56;87.11
10482;BME280;5288;42.334;23.876;2023-05-23T02:59:42;56381.44;;;-140.56;87.11
10482;BME280;5288;42.334;23.876;2023-05-23T03:02:09;56339.94;;;-140.56;88.07
10482;BME280;5288;42.334;23.876;2023-05-23T03:04:36;56343.91;;;-140.56;87.46
10482;BME280;5288;42.334;23.876;2023-05-23T03:07:03;56334.03;;;-140.56;87.16
10482;BME280;5288;42.334;23.876;2023-05-23T03:09:31;56320.19;;;-140.56;86.99
10482;BME280;5288;42.334;23.876;2023-05-23T03:11:59;56300.44;;;-140.56;86.57
10482;BME280;5288;42.334;23.876;2023-05-23T03:14:26;56318.22;;;-140.56;86.38
10482;BME280;5288;42.334;23.876;2023-05-23T03:16:53;56318.22;;;-140.56;85.66
10482;BME280;5288;42.334;23.876;2023-05-23T03:19:20;56318.22;;;-140.56;85.33
10482;BME280;5288;42.334;23.876;2023-05-23T03:21:47;56330.06;;;-140.56;85.63
10482;BME280;5288;42.334;23.876;2023-05-23T03:24:15;56310.31;;;-140.56;85.55
10482;BME280;5288;42.334;23.876;2023-05-23T03:26:42;56347.84;;;-140.56;85.37
10482;BME280;5288;42.334;23.876;2023-05-23T03:29:11;56351.81;;;-140.56;85.17
10482;BME280;5288;42.334;23.876;2023-05-23T03:31:37;56318.22;;;-140.56;84.53
10482;BME280;5288;42.334;23.876;2023-05-23T03:34:04;56308.34;;;-140.56;84.70
10482;BME280;5288;42.334;23.876;2023-05-23T03:36:31;56341.94;;;-140.56;85.75
10482;BME280;5288;42.334;23.876;2023-05-23T03:39:00;56353.78;;;-140.56;86.20
10482;BME280;5288;42.334;23.876;2023-05-23T03:41:27;56353.78;;;-140.56;85.43
10482;BME280;5288;42.334;23.876;2023-05-23T03:43:53;56314.25;;;-140.56;85.92
10482;BME280;5288;42.334;23.876;2023-05-23T03:46:22;56343.91;;;-140.56;86.35
10482;BME280;5288;42.334;23.876;2023-05-23T03:48:49;56345.88;;;-140.56;86.58
10482;BME280;5288;42.334;23.876;2023-05-23T03:51:16;56365.66;;;-140.56;86.20
10482;BME280;5288;42.334;23.876;2023-05-23T03:53:43;56336.00;;;-140.56;86.26
10482;BME280;5288;42.334;23.876;2023-05-23T03:56:10;56300.44;;;-140.56;86.30
10482;BME280;5288;42.334;23.876;2023-05-23T03:58:37;56334.03;;;-140.56;86.03
10482;BME280;5288;42.334;23.876;2023-05-23T04:01:03;56318.22;;;-140.56;85.90
10482;BME280;5288;42.334;23.876;2023-05-23T04:03:32;56326.13;;;-140.56;85.99
10482;BME280;5288;42.334;23.876;2023-05-23T04:05:59;56341.94;;;-140.56;85.80
10482;BME280;5288;42.334;23.876;2023-05-23T04:08:27;56296.47;;;-140.56;86.46
10482;BME280;5288;42.334;23.876;2023-05-23T04:10:54;56318.22;;;-140.56;86.67
10482;BME280;5288;42.334;23.876;2023-05-23T04:13:21;56322.16;;;-140.56;86.73
10482;BME280;5288;42.334;23.876;2023-05-23T04:15:49;56324.13;;;-140.56;86.99
10482;BME280;5288;42.334;23.876;2023-05-23T04:18:17;56286.59;;;-140.56;87.17
10482;BME280;5288;42.334;23.876;2023-05-23T04:20:45;56316.25;;;-140.56;87.46
10482;BME280;5288;42.334;23.876;2023-05-23T04:23:12;56310.31;;;-140.56;88.13
10482;BME280;5288;42.334;23.876;2023-05-23T04:25:39;56349.84;;;-140.56;88.14
10482;BME280;5288;42.334;23.876;2023-05-23T04:28:06;56320.19;;;-140.56;88.49
10482;BME280;5288;42.334;23.876;2023-05-23T04:30:34;56318.22;;;-140.56;88.58
10482;BME280;5288;42.334;23.876;2023-05-23T04:33:02;56300.44;;;-140.56;88.73
10482;BME280;5288;42.334;23.876;2023-05-23T04:35:29;56353.78;;;-140.56;88.58
10482;BME280;5288;42.334;23.876;2023-05-23T04:38:00;56314.25;;;-140.56;88.75
10482;BME280;5288;42.334;23.876;2023-05-23T04:40:28;56336.00;;;-140.56;88.84
10482;BME280;5288;42.334;23.876;2023-05-23T04:42:55;56314.25;;;-140.56;88.91
10482;BME280;5288;42.334;23.876;2023-05-23T04:45:22;56337.97;;;-140.56;88.89
10482;BME280;5288;42.334;23.876;2023-05-23T04:47:51;56322.16;;;-140.56;88.60
10482;BME280;5288;42.334;23.876;2023-05-23T04:50:19;56314.25;;;-140.56;88.53
10482;BME280;5288;42.334;23.876;2023-05-23T04:52:47;56318.22;;;-140.56;88.56
10482;BME280;5288;42.334;23.876;2023-05-23T04:55:16;56306.34;;;-140.56;88.29
10482;BME280;5288;42.334;23.876;2023-05-23T04:57:44;56272.75;;;-140.56;87.77
10482;BME280;5288;42.334;23.876;2023-05-23T05:00:12;56294.50;;;-140.56;87.14
10482;BME280;5288;42.334;23.876;2023-05-23T05:02:40;56292.53;;;-140.56;86.67
10482;BME280;5288;42.334;23.876;2023-05-23T05:05:08;56330.06;;;-140.56;86.05
10482;BME280;5288;42.334;23.876;2023-05-23T05:07:36;56298.44;;;-140.56;85.83
10482;BME280;5288;42.334;23.876;2023-05-23T05:10:04;56300.44;;;-140.56;86.37
10482;BME280;5288;42.334;23.876;2023-05-23T05:12:32;56282.63;;;-140.56;86.46
10482;BME280;5288;42.334;23.876;2023-05-23T05:14:59;56312.28;;;-140.56;85.91
10482;BME280;5288;42.334;23.876;2023-05-23T05:17:26;56290.53;;;-140.56;85.86
10482;BME280;5288;42.334;23.876;2023-05-23T05:19:54;56314.25;;;-140.56;85.54
10482;BME280;5288;42.334;23.876;2023-05-23T05:22:21;56310.31;;;-140.56;85.29
10482;BME280;5288;42.334;23.876;2023-05-23T05:24:50;56298.44;;;-140.56;84.32
10482;BME280;5288;42.334;23.876;2023-05-23T05:27:17;56290.53;;;-140.56;84.01
10482;BME280;5288;42.334;23.876;2023-05-23T05:29:45;56290.53;;;-140.56;83.99
10482;BME280;5288;42.334;23.876;2023-05-23T05:32:12;56290.53;;;-140.56;82.63
10482;BME280;5288;42.334;23.876;2023-05-23T05:34:39;56302.41;;;-140.56;82.43
10482;BME280;5288;42.334;23.876;2023-05-23T05:37:07;56274.72;;;-140.56;81.76
10482;BME280;5288;42.334;23.876;2023-05-23T05:39:37;56296.47;;;-140.56;80.82
10482;BME280;5288;42.334;23.876;2023-05-23T05:42:04;56251.03;;;-140.56;80.00
10482;BME280;5288;42.334;23.876;2023-05-23T05:44:31;56286.59;;;-140.56;78.95
10482;BME280;5288;42.334;23.876;2023-05-23T05:47:01;56251.03;;;-140.56;78.76
10482;BME280;5288;42.334;23.876;2023-05-23T05:49:28;56262.88;;;-140.56;77.41
10482;BME280;5288;42.334;23.876;2023-05-23T05:51:55;56254.97;;;-140.56;77.62
10482;BME280;5288;42.334;23.876;2023-05-23T05:54:22;56286.59;;;-140.56;77.11
10482;BME280;5288;42.334;23.876;2023-05-23T05:56:49;56233.22;;;-140.56;76.44
10482;BME280;5288;42.334;23.876;2023-05-23T05:59:16;56243.13;;;-140.56;76.02
10482;BME280;5288;42.334;23.876;2023-05-23T06:01:43;56262.88;;;-140.56;76.32
10482;BME280;5288;42.334;23.876;2023-05-23T06:04:11;56197.66;;;-140.56;75.47
10482;BME280;5288;42.334;23.876;2023-05-23T06:06:38;56247.06;;;-140.56;74.81
10482;BME280;5288;42.334;23.876;2023-05-23T06:09:05;56199.63;;;-140.56;74.35
10482;BME280;5288;42.334;23.876;2023-05-23T06:11:32;56223.34;;;-140.56;73.48
10482;BME280;5288;42.334;23.876;2023-05-23T06:14:03;56223.34;;;-140.56;73.72
10482;BME280;5288;42.334;23.876;2023-05-23T06:16:30;56233.22;;;-140.56;73.18
10482;BME280;5288;42.334;23.876;2023-05-23T06:18:57;56231.25;;;-140.56;72.81
10482;BME280;5288;42.334;23.876;2023-05-23T06:21:25;56229.28;;;-140.56;72.76
10482;BME280;5288;42.334;23.876;2023-05-23T06:23:52;56209.50;;;-140.56;72.39
10482;BME280;5288;42.334;23.876;2023-05-23T06:26:19;56201.63;;;-140.56;71.11
10482;BME280;5288;42.334;23.876;2023-05-23T06:28:46;56211.50;;;-140.56;70.66
10482;BME280;5288;42.334;23.876;2023-05-23T06:31:13;56162.09;;;-140.56;70.68
10482;BME280;5288;42.334;23.876;2023-05-23T06:33:39;56215.44;;;-140.56;70.01
10482;BME280;5288;42.334;23.876;2023-05-23T06:36:07;56150.22;;;-140.56;71.30
10482;BME280;5288;42.334;23.876;2023-05-23T06:38:35;56179.88;;;-140.56;72.21
10482;BME280;5288;42.334;23.876;2023-05-23T06:41:02;56189.75;;;-140.56;70.73
10482;BME280;5288;42.334;23.876;2023-05-23T06:43:31;56158.13;;;-140.56;70.39
10482;BME280;5288;42.334;23.876;2023-05-23T06:45:58;56199.63;;;-140.56;70.53
10482;BME280;5288;42.334;23.876;2023-05-23T06:48:25;56158.13;;;-140.56;70.37
10482;BME280;5288;42.334;23.876;2023-05-23T06:50:52;56162.09;;;-140.56;69.69
10482;BME280;5288;42.334;23.876;2023-05-23T06:53:19;56177.91;;;-140.56;68.32
10482;BME280;5288;42.334;23.876;2023-05-23T06:55:47;56138.38;;;-140.56;68.21
10482;BME280;5288;42.334;23.876;2023-05-23T06:58:14;56150.22;;;-140.56;68.31
10482;BME280;5288;42.334;23.876;2023-05-23T07:00:41;56122.56;;;-140.56;67.30
10482;BME280;5288;42.334;23.876;2023-05-23T07:03:08;56136.41;;;-140.56;65.82
10482;BME280;5288;42.334;23.876;2023-05-23T07:05:35;56122.56;;;-140.56;64.37
10482;BME280;5288;42.334;23.876;2023-05-23T07:08:02;56134.41;;;-140.56;64.92
10482;BME280;5288;42.334;23.876;2023-05-23T07:10:29;56160.13;;;-140.56;65.17
10482;BME280;5288;42.334;23.876;2023-05-23T07:12:59;56128.50;;;-140.56;66.03
10482;BME280;5288;42.334;23.876;2023-05-23T07:15:26;56112.69;;;-140.56;65.39
10482;BME280;5288;42.334;23.876;2023-05-23T07:17:53;56104.78;;;-140.56;64.61
10482;BME280;5288;42.334;23.876;2023-05-23T07:23:54;56124.53;;;-140.56;63.86
10482;BME280;5288;42.334;23.876;2023-05-23T07:26:22;56085.00;;;-140.56;60.43
10482;BME280;5288;42.334;23.876;2023-05-23T07:28:51;56087.00;;;-140.56;62.28
10482;BME280;5288;42.334;23.876;2023-05-23T07:31:18;56063.28;;;-140.56;55.33
10482;BME280;5288;42.334;23.876;2023-05-23T07:33:45;56071.19;;;-140.56;51.10
10482;BME280;5288;42.334;23.876;2023-05-23T07:36:12;56065.25;;;-140.56;55.97
10482;BME280;5288;42.334;23.876;2023-05-23T07:38:39;56067.22;;;-140.56;58.57
10482;BME280;5288;42.334;23.876;2023-05-23T07:41:06;56092.91;;;-140.56;56.74
10482;BME280;5288;42.334;23.876;2023-05-23T07:43:33;56043.50;;;-140.56;47.67
10482;BME280;5288;42.334;23.876;2023-05-23T07:46:01;56065.25;;;-140.56;44.79
10482;BME280;5288;42.334;23.876;2023-05-23T07:48:28;56051.41;;;-140.56;44.82
10482;BME280;5288;42.334;23.876;2023-05-23T07:50:56;56067.22;;;-140.56;48.99
10482;BME280;5288;42.334;23.876;2023-05-23T07:53:23;56053.41;;;-140.56;50.39
10482;BME280;5288;42.334;23.876;2023-05-23T07:55:50;56023.75;;;-140.56;47.08
10482;BME280;5288;42.334;23.876;2023-05-23T07:58:17;56053.41;;;-140.56;44.95
10482;BME280;5288;42.334;23.876;2023-05-23T08:00:44;56043.50;;;-140.56;43.77
10482;BME280;5288;42.334;23.876;2023-05-23T08:03:12;56031.66;;;-140.56;43.46
10482;BME280;5288;42.334;23.876;2023-05-23T08:05:40;56043.50;;;-140.56;44.31
10482;BME280;5288;42.334;23.876;2023-05-23T08:08:07;56049.44;;;-140.56;45.61
10482;BME280;5288;42.334;23.876;2023-05-23T08:10:36;56059.31;;;-140.56;43.31
10482;BME280;5288;42.334;23.876;2023-05-23T08:13:04;56047.47;;;-140.56;42.84
10482;BME280;5288;42.334;23.876;2023-05-23T08:15:31;56031.66;;;-140.56;46.21
10482;BME280;5288;42.334;23.876;2023-05-23T08:17:58;55982.25;;;-140.56;45.61
10482;BME280;5288;42.334;23.876;2023-05-23T08:20:27;56023.75;;;-140.56;45.29
10482;BME280;5288;42.334;23.876;2023-05-23T08:22:57;56019.81;;;-140.56;43.17
10482;BME280;5288;42.334;23.876;2023-05-23T08:25:24;56031.66;;;-140.56;44.63
10482;BME280;5288;42.334;23.876;2023-05-23T08:27:55;56027.72;;;-140.56;41.94
10482;BME280;5288;42.334;23.876;2023-05-23T08:30:22;56011.91;;;-140.56;43.10
10482;BME280;5288;42.334;23.876;2023-05-23T08:32:50;55992.13;;;-140.56;42.70
10482;BME280;5288;42.334;23.876;2023-05-23T08:35:17;56033.63;;;-140.56;41.03
10482;BME280;5288;42.334;23.876;2023-05-23T08:37:46;56019.81;;;-140.56;43.03
10482;BME280;5288;42.334;23.876;2023-05-23T08:40:18;56017.81;;;-140.56;40.05
10482;BME280;5288;42.334;23.876;2023-05-23T08:42:46;56017.81;;;-140.56;39.54
10482;BME280;5288;42.334;23.876;2023-05-23T08:45:13;56057.34;;;-140.56;42.71
10482;BME280;5288;42.334;23.876;2023-05-23T08:47:42;56023.75;;;-140.56;41.40
10482;BME280;5288;42.334;23.876;2023-05-23T08:50:11;56007.94;;;-140.56;39.38
10482;BME280;5288;42.334;23.876;2023-05-23T08:52:42;56009.91;;;-140.56;37.96
10482;BME280;5288;42.334;23.876;2023-05-23T08:55:12;55986.22;;;-140.56;38.60
10482;BME280;5288;42.334;23.876;2023-05-23T08:57:39;56002.00;;;-140.56;39.05
10482;BME280;5288;42.334;23.876;2023-05-23T09:00:10;55988.19;;;-140.56;39.09
10482;BME280;5288;42.334;23.876;2023-05-23T09:02:39;55972.38;;;-140.56;40.63
10482;BME280;5288;42.334;23.876;2023-05-23T09:05:07;55998.06;;;-140.56;38.20
10482;BME280;5288;42.334;23.876;2023-05-23T09:07:35;56005.97;;;-140.56;37.97
10482;BME280;5288;42.334;23.876;2023-05-23T09:10:03;55976.31;;;-140.56;37.46
10482;BME280;5288;42.334;23.876;2023-05-23T09:12:33;55994.13;;;-140.56;37.04
10482;BME280;5288;42.334;23.876;2023-05-23T09:15:01;56029.69;;;-140.56;37.44
10482;BME280;5288;42.334;23.876;2023-05-23T09:17:30;55998.06;;;-140.56;36.23
10482;BME280;5288;42.334;23.876;2023-05-23T09:19:57;55984.22;;;-140.56;36.77
10482;BME280;5288;42.334;23.876;2023-05-23T09:22:25;55982.25;;;-140.56;36.98
10482;BME280;5288;42.334;23.876;2023-05-23T09:24:53;55956.56;;;-140.56;38.00
10482;BME280;5288;42.334;23.876;2023-05-23T09:27:21;55968.41;;;-140.56;39.42
10482;BME280;5288;42.334;23.876;2023-05-23T09:29:49;55966.44;;;-140.56;39.07
10482;BME280;5288;42.334;23.876;2023-05-23T09:32:20;55968.41;;;-140.56;39.61
10482;BME280;5288;42.334;23.876;2023-05-23T09:34:57;55958.53;;;-140.56;37.63
10482;BME280;5288;42.334;23.876;2023-05-23T09:37:29;55978.31;;;-140.56;39.72
10482;BME280;5288;42.334;23.876;2023-05-23T09:40:06;55970.41;;;-140.56;37.87
10482;BME280;5288;42.334;23.876;2023-05-23T09:42:35;55940.75;;;-140.56;39.04
10482;BME280;5288;42.334;23.876;2023-05-23T09:45:04;55970.41;;;-140.56;36.91
10482;BME280;5288;42.334;23.876;2023-05-23T09:47:32;55972.38;;;-140.56;36.45
10482;BME280;5288;42.334;23.876;2023-05-23T09:49:59;55980.28;;;-140.56;36.57
10482;BME280;5288;42.334;23.876;2023-05-23T09:52:26;55986.22;;;-140.56;36.44
10482;BME280;5288;42.334;23.876;2023-05-23T09:54:53;55992.13;;;-140.56;35.17
10482;BME280;5288;42.334;23.876;2023-05-23T09:57:21;55986.22;;;-140.56;36.91
10482;BME280;5288;42.334;23.876;2023-05-23T09:59:51;55954.59;;;-140.56;34.73
10482;BME280;5288;42.334;23.876;2023-05-23T10:02:46;55960.53;;;-140.56;36.82
10482;BME280;5288;42.334;23.876;2023-05-23T10:05:30;55966.44;;;-140.56;38.23
10482;BME280;5288;42.334;23.876;2023-05-23T10:08:00;55972.38;;;-140.56;38.40
10482;BME280;5288;42.334;23.876;2023-05-23T10:10:30;56004.00;;;-140.56;38.31
10482;BME280;5288;42.334;23.876;2023-05-23T10:13:01;55996.09;;;-140.56;39.73
10482;BME280;5288;42.334;23.876;2023-05-23T10:15:34;55982.25;;;-140.56;39.96
10482;BME280;5288;42.334;23.876;2023-05-23T10:18:13;56004.00;;;-140.56;38.75
10482;BME280;5288;42.334;23.876;2023-05-23T10:20:43;56005.97;;;-140.56;40.11
10482;BME280;5288;42.334;23.876;2023-05-23T10:23:13;56015.84;;;-140.56;39.99
10482;BME280;5288;42.334;23.876;2023-05-23T10:25:41;56002.00;;;-140.56;39.29
10482;BME280;5288;42.334;23.876;2023-05-23T10:28:10;55998.06;;;-140.56;38.30
10482;BME280;5288;42.334;23.876;2023-05-23T10:30:37;56023.75;;;-140.56;37.67
10482;BME280;5288;42.334;23.876;2023-05-23T10:33:05;55950.63;;;-140.56;36.99
10482;BME280;5288;42.334;23.876;2023-05-23T10:35:43;55978.31;;;-140.56;36.15
10482;BME280;5288;42.334;23.876;2023-05-23T10:38:28;55972.38;;;-140.56;36.68
10482;BME280;5288;42.334;23.876;2023-05-23T10:41:02;55990.16;;;-140.56;37.72
10482;BME280;5288;42.334;23.876;2023-05-23T10:43:39;55966.44;;;-140.56;38.49
10482;BME280;5288;42.334;23.876;2023-05-23T10:46:08;55966.44;;;-140.56;38.18
10482;BME280;5288;42.334;23.876;2023-05-23T10:48:41;55978.31;;;-140.56;38.54
10482;BME280;5288;42.334;23.876;2023-05-23T10:51:11;55988.19;;;-140.56;38.87
10482;BME280;5288;42.334;23.876;2023-05-23T10:53:43;55976.31;;;-140.56;38.84
10482;BME280;5288;42.334;23.876;2023-05-23T10:56:18;55956.56;;;-140.56;39.11
10482;BME280;5288;42.334;23.876;2023-05-23T10:58:50;55978.31;;;-140.56;38.60
10482;BME280;5288;42.334;23.876;2023-05-23T11:01:18;55958.53;;;-140.56;37.79
10482;BME280;5288;42.334;23.876;2023-05-23T11:03:50;55921.00;;;-140.56;37.71
10482;BME280;5288;42.334;23.876;2023-05-23T11:06:36;55942.72;;;-140.56;36.23
10482;BME280;5288;42.334;23.876;2023-05-23T11:09:10;55921.00;;;-140.56;36.49
10482;BME280;5288;42.334;23.876;2023-05-23T11:11:53;55942.72;;;-140.56;36.81
10482;BME280;5288;42.334;23.876;2023-05-23T11:14:31;55958.53;;;-140.56;36.18
10482;BME280;5288;42.334;23.876;2023-05-23T11:16:59;55982.25;;;-140.56;37.89
10482;BME280;5288;42.334;23.876;2023-05-23T11:19:27;56002.00;;;-140.56;40.86
10482;BME280;5288;42.334;23.876;2023-05-23T11:21:57;56077.09;;;-140.56;43.00
10482;BME280;5288;42.334;23.876;2023-05-23T11:24:48;56013.88;;;-140.56;44.45
10482;BME280;5288;42.334;23.876;2023-05-23T11:27:16;56017.81;;;-140.56;43.49
10482;BME280;5288;42.334;23.876;2023-05-23T11:29:56;56019.81;;;-140.56;43.99
10482;BME280;5288;42.334;23.876;2023-05-23T11:32:23;56031.66;;;-140.56;43.45
10482;BME280;5288;42.334;23.876;2023-05-23T11:34:50;56041.53;;;-140.56;43.70
10482;BME280;5288;42.334;23.876;2023-05-23T11:37:19;56073.16;;;-140.56;44.18
10482;BME280;5288;42.334;23.876;2023-05-23T11:39:48;56029.69;;;-140.56;44.93
10482;BME280;5288;42.334;23.876;2023-05-23T11:42:15;56053.41;;;-140.56;44.42
10482;BME280;5288;42.334;23.876;2023-05-23T11:44:42;56023.75;;;-140.56;44.87
10482;BME280;5288;42.334;23.876;2023-05-23T11:47:09;56069.22;;;-140.56;44.54
10482;BME280;5288;42.334;23.876;2023-05-23T11:49:39;56051.41;;;-140.56;45.12
10482;BME280;5288;42.334;23.876;2023-05-23T11:52:06;56019.81;;;-140.56;44.95
10482;BME280;5288;42.334;23.876;2023-05-23T11:54:34;56041.53;;;-140.56;44.62
10482;BME280;5288;42.334;23.876;2023-05-23T11:57:01;56033.63;;;-140.56;43.77
10482;BME280;5288;42.334;23.876;2023-05-23T11:59:29;56055.38;;;-140.56;43.69
10482;BME280;5288;42.334;23.876;2023-05-23T12:01:56;56067.22;;;-140.56;44.82
10482;BME280;5288;42.334;23.876;2023-05-23T12:04:24;56100.81;;;-140.56;44.76
10482;BME280;5288;42.334;23.876;2023-05-23T12:06:51;56085.00;;;-140.56;44.79
10482;BME280;5288;42.334;23.876;2023-05-23T12:09:24;56047.47;;;-140.56;45.59
10482;BME280;5288;42.334;23.876;2023-05-23T12:11:52;56061.31;;;-140.56;44.28
10482;BME280;5288;42.334;23.876;2023-05-23T12:14:19;56043.50;;;-140.56;42.50
10482;BME280;5288;42.334;23.876;2023-05-23T12:16:46;56031.66;;;-140.56;42.72
10482;BME280;5288;42.334;23.876;2023-05-23T12:19:15;55994.13;;;-140.56;42.77
10482;BME280;5288;42.334;23.876;2023-05-23T12:21:44;55966.44;;;-140.56;39.91
10482;BME280;5288;42.334;23.876;2023-05-23T12:24:15;55958.53;;;-140.56;38.30
10482;BME280;5288;42.334;23.876;2023-05-23T12:26:50;55960.53;;;-140.56;37.52
10482;BME280;5288;42.334;23.876;2023-05-23T12:29:20;55942.72;;;-140.56;36.74
10482;BME280;5288;42.334;23.876;2023-05-23T12:31:48;55952.63;;;-140.56;36.58
10482;BME280;5288;42.334;23.876;2023-05-23T12:34:16;55972.38;;;-140.56;37.58
10482;BME280;5288;42.334;23.876;2023-05-23T12:36:43;55940.75;;;-140.56;37.79
10482;BME280;5288;42.334;23.876;2023-05-23T12:39:14;55905.19;;;-140.56;36.96
10482;BME280;5288;42.334;23.876;2023-05-23T12:41:41;55899.25;;;-140.56;35.48
10482;BME280;5288;42.334;23.876;2023-05-23T12:44:14;55865.66;;;-140.56;35.04
10482;BME280;5288;42.334;23.876;2023-05-23T12:46:43;55919.03;;;-140.56;35.10
10482;BME280;5288;42.334;23.876;2023-05-23T12:49:11;55879.50;;;-140.56;34.72
10482;BME280;5288;42.334;23.876;2023-05-23T12:51:39;55911.13;;;-140.56;35.03